Time;durP1;ratioP1;P1;durP2;ratioP2;P2;SDS_P1;SDS_P2;PMS_P1;PMS_P2;Temp;Humidity;BMP_temperature;BMP_pressure;BME280_temperature;BME280_humidity;BME280_pressure;Samples;Min_cycle;Max_cycle;Signal;HPM_P1;HPM_P2
2022/11/30 00:00:49;;;;;;;44.13;28.20;;;;;;;;;;5240465;28;20483;-76
2022/11/30 00:03:20;;;;;;;45.72;26.92;;;;;;;;;;5241591;28;20040;-76
2022/11/30 00:05:51;;;;;;;41.33;27.40;;;;;;;;;;5240856;28;20021;-77
2022/11/30 00:08:25;;;;;;;44.50;27.42;;;;;;;;;;5241682;28;20040;-76
2022/11/30 00:10:56;;;;;;;41.05;26.23;;;;;;;;;;5241413;28;20052;-77
2022/11/30 00:13:27;;;;;;;45.67;28.35;;;;;;;;;;5240516;28;20053;-77
2022/11/30 00:16:00;;;;;;;46.53;27.83;;;;;;;;;;5241428;28;20021;-78
2022/11/30 00:18:31;;;;;;;39.00;26.67;;;;;;;;;;5240177;28;20109;-77
2022/11/30 00:21:03;;;;;;;40.78;27.77;;;;;;;;;;5240429;28;20104;-76
2022/11/30 00:23:35;;;;;;;42.28;27.92;;;;;;;;;;5241224;28;20511;-77
2022/11/30 00:26:07;;;;;;;45.58;29.30;;;;;;;;;;5240900;28;20024;-76
2022/11/30 00:28:39;;;;;;;47.70;28.08;;;;;;;;;;5239884;28;20024;-77
2022/11/30 00:31:11;;;;;;;45.53;27.98;;;;;;;;;;5241055;28;20017;-76
2022/11/30 00:33:42;;;;;;;42.15;27.13;;;;;;;;;;5240329;28;20051;-77
2022/11/30 00:36:15;;;;;;;45.15;28.92;;;;;;;;;;5240389;28;20037;-76
2022/11/30 00:38:46;;;;;;;46.58;28.35;;;;;;;;;;5240465;28;20032;-77
2022/11/30 00:41:18;;;;;;;42.78;27.58;;;;;;;;;;5240026;28;20104;-77
2022/11/30 00:43:49;;;;;;;46.25;28.27;;;;;;;;;;5240419;28;20013;-77
2022/11/30 00:46:20;;;;;;;43.10;28.33;;;;;;;;;;5240884;28;20048;-78
2022/11/30 00:48:51;;;;;;;46.33;28.83;;;;;;;;;;5239856;28;20071;-77
2022/11/30 00:51:22;;;;;;;46.35;28.55;;;;;;;;;;5240718;28;20504;-78
2022/11/30 00:53:54;;;;;;;47.40;28.14;;;;;;;;;;5240440;28;20049;-77
2022/11/30 00:56:25;;;;;;;49.20;28.08;;;;;;;;;;5239652;28;20018;-75
2022/11/30 00:58:56;;;;;;;45.22;29.63;;;;;;;;;;5240485;28;20456;-76
2022/11/30 01:01:27;;;;;;;44.10;28.80;;;;;;;;;;5240650;28;20354;-75
2022/11/30 01:03:58;;;;;;;44.40;28.55;;;;;;;;;;5239723;28;20435;-76
2022/11/30 01:06:29;;;;;;;46.50;27.60;;;;;;;;;;5240392;28;20021;-76
2022/11/30 01:09:01;;;;;;;44.97;28.05;;;;;;;;;;5240622;28;20264;-75
2022/11/30 01:11:33;;;;;;;44.55;27.83;;;;;;;;;;5239722;28;20010;-76
2022/11/30 01:14:04;;;;;;;40.18;25.48;;;;;;;;;;5240267;28;20065;-76
2022/11/30 01:16:35;;;;;;;41.78;25.42;;;;;;;;;;5239501;28;20024;-76
2022/11/30 01:19:06;;;;;;;40.63;26.73;;;;;;;;;;5240100;28;20156;-76
2022/11/30 01:21:37;;;;;;;38.55;23.95;;;;;;;;;;5240327;28;20108;-75
2022/11/30 01:24:09;;;;;;;35.72;24.15;;;;;;;;;;5239510;28;20063;-76
2022/11/30 01:26:40;;;;;;;35.58;23.83;;;;;;;;;;5239726;28;20017;-76
2022/11/30 01:29:11;;;;;;;38.20;22.70;;;;;;;;;;5240210;28;20021;-76
2022/11/30 01:31:42;;;;;;;35.74;23.38;;;;;;;;;;5239293;28;20147;-77
2022/11/30 01:34:14;;;;;;;34.60;21.58;;;;;;;;;;5240301;28;20046;-77
2022/11/30 01:36:47;;;;;;;31.65;21.00;;;;;;;;;;5239953;28;20140;-77
2022/11/30 01:39:18;;;;;;;33.15;19.98;;;;;;;;;;5239493;28;20071;-77
2022/11/30 01:41:49;;;;;;;29.05;20.40;;;;;;;;;;5239658;28;20529;-77
2022/11/30 01:44:25;;;;;;;31.75;21.52;;;;;;;;;;5239258;28;20048;-78
2022/11/30 01:47:01;;;;;;;35.40;21.65;;;;;;;;;;5240071;28;20034;-77
2022/11/30 01:49:35;;;;;;;39.00;21.52;;;;;;;;;;5240015;28;20063;-77
2022/11/30 01:52:09;;;;;;;31.95;21.67;;;;;;;;;;5239212;28;20380;-77
2022/11/30 01:54:51;;;;;;;33.65;22.35;;;;;;;;;;5239838;28;20373;-77
2022/11/30 01:57:23;;;;;;;32.10;20.60;;;;;;;;;;5239831;28;20103;-77
2022/11/30 01:59:56;;;;;;;30.40;20.67;;;;;;;;;;5239505;28;20063;-77
2022/11/30 02:02:38;;;;;;;30.02;20.25;;;;;;;;;;5239720;28;20029;-77
2022/11/30 02:05:11;;;;;;;27.50;19.70;;;;;;;;;;5240455;28;20542;-77
2022/11/30 02:07:42;;;;;;;27.67;19.63;;;;;;;;;;5238720;28;20060;-77
2022/11/30 02:10:14;;;;;;;27.40;20.50;;;;;;;;;;5240024;28;20067;-77
2022/11/30 02:13:04;;;;;;;31.17;19.15;;;;;;;;;;5238539;28;20792;-78
2022/11/30 02:15:54;;;;;;;28.63;19.75;;;;;;;;;;5239888;28;20412;-77
2022/11/30 02:18:39;;;;;;;27.00;18.50;;;;;;;;;;5239617;28;20033;-77
2022/11/30 02:21:29;;;;;;;28.77;19.50;;;;;;;;;;5239096;28;20025;-77
2022/11/30 02:24:09;;;;;;;26.33;17.80;;;;;;;;;;5239668;28;20032;-77
2022/11/30 02:26:54;;;;;;;24.83;17.35;;;;;;;;;;5238616;28;20095;-77
2022/11/30 02:29:39;;;;;;;24.95;17.98;;;;;;;;;;5239602;28;20362;-77
2022/11/30 02:32:10;;;;;;;24.08;17.60;;;;;;;;;;5240078;28;20029;-77
2022/11/30 02:34:43;;;;;;;25.05;17.90;;;;;;;;;;5238252;28;20049;-77
2022/11/30 02:37:15;;;;;;;25.70;17.95;;;;;;;;;;5239800;28;20351;-77
2022/11/30 02:39:46;;;;;;;23.95;18.15;;;;;;;;;;5239107;28;20013;-77
2022/11/30 02:42:17;;;;;;;21.46;17.04;;;;;;;;;;5241052;28;20535;-77
2022/11/30 02:44:50;;;;;;;21.80;16.75;;;;;;;;;;5242801;28;20468;-77
2022/11/30 02:47:33;;;;;;;25.20;16.60;;;;;;;;;;5243273;28;20623;-77
2022/11/30 02:50:10;;;;;;;21.90;16.08;;;;;;;;;;5242193;28;20071;-77
2022/11/30 02:52:42;;;;;;;20.73;16.70;;;;;;;;;;5242709;28;20037;-77
2022/11/30 02:55:15;;;;;;;20.25;15.02;;;;;;;;;;5242719;28;20535;-77
2022/11/30 02:57:47;;;;;;;20.42;16.17;;;;;;;;;;5242774;28;20425;-77
2022/11/30 03:00:18;;;;;;;22.80;14.98;;;;;;;;;;5243206;28;20099;-77
2022/11/30 03:02:49;;;;;;;20.50;14.63;;;;;;;;;;5241437;28;20041;-74
2022/11/30 03:05:20;;;;;;;19.58;14.82;;;;;;;;;;5242749;28;20017;-75
2022/11/30 03:07:51;;;;;;;18.25;14.35;;;;;;;;;;5242690;28;20478;-76
2022/11/30 03:10:23;;;;;;;24.70;15.96;;;;;;;;;;5241816;28;20025;-75
2022/11/30 03:12:57;;;;;;;19.15;15.10;;;;;;;;;;5242600;28;20159;-77
2022/11/30 03:15:28;;;;;;;20.38;15.10;;;;;;;;;;5242368;28;20021;-76
2022/11/30 03:18:01;;;;;;;19.02;14.27;;;;;;;;;;5241516;28;20026;-77
2022/11/30 03:20:32;;;;;;;17.50;14.68;;;;;;;;;;5242341;28;20021;-77
2022/11/30 03:23:03;;;;;;;17.75;13.68;;;;;;;;;;5241442;28;20025;-77
2022/11/30 03:25:34;;;;;;;17.40;13.75;;;;;;;;;;5242364;28;20033;-77
2022/11/30 03:28:05;;;;;;;19.60;14.40;;;;;;;;;;5241956;28;20056;-76
2022/11/30 03:30:36;;;;;;;20.27;14.48;;;;;;;;;;5241315;28;20560;-76
2022/11/30 03:33:08;;;;;;;18.33;14.55;;;;;;;;;;5242050;28;20419;-76
2022/11/30 03:35:40;;;;;;;17.35;13.77;;;;;;;;;;5241636;28;20938;-77
2022/11/30 03:38:11;;;;;;;16.58;13.43;;;;;;;;;;5241550;28;20116;-76
2022/11/30 03:40:42;;;;;;;19.85;14.45;;;;;;;;;;5241616;28;20087;-76
2022/11/30 03:43:13;;;;;;;16.38;13.42;;;;;;;;;;5242169;28;20480;-75
2022/11/30 03:45:44;;;;;;;19.48;13.75;;;;;;;;;;5240707;28;20472;-76
2022/11/30 03:48:16;;;;;;;16.75;13.85;;;;;;;;;;5242333;28;20354;-76
2022/11/30 03:50:48;;;;;;;16.26;13.68;;;;;;;;;;5241533;28;20096;-75
2022/11/30 03:53:20;;;;;;;17.13;14.02;;;;;;;;;;5241402;28;20063;-76
2022/11/30 03:55:56;;;;;;;16.52;13.70;;;;;;;;;;5241937;28;20017;-76
2022/11/30 03:58:28;;;;;;;13.88;12.43;;;;;;;;;;5240893;28;20022;-76
2022/11/30 04:00:59;;;;;;;19.80;14.13;;;;;;;;;;5241499;28;20032;-76
2022/11/30 04:03:31;;;;;;;17.42;12.82;;;;;;;;;;5241397;28;20038;-76
2022/11/30 04:06:03;;;;;;;17.98;13.68;;;;;;;;;;5240712;28;20021;-76
2022/11/30 04:08:34;;;;;;;17.58;12.98;;;;;;;;;;5241569;28;20480;-75
2022/11/30 04:11:06;;;;;;;15.85;12.90;;;;;;;;;;5241345;28;20029;-76
2022/11/30 04:13:37;;;;;;;16.45;13.23;;;;;;;;;;5240552;28;20072;-76
2022/11/30 04:16:09;;;;;;;17.02;12.70;;;;;;;;;;5241203;28;20113;-76
2022/11/30 04:18:40;;;;;;;15.95;13.07;;;;;;;;;;5240932;28;20388;-76
2022/11/30 04:21:11;;;;;;;16.70;13.20;;;;;;;;;;5240665;28;20021;-76
2022/11/30 04:23:42;;;;;;;16.77;12.98;;;;;;;;;;5240822;28;20370;-76
2022/11/30 04:26:15;;;;;;;15.32;12.40;;;;;;;;;;5240580;28;20021;-76
2022/11/30 04:28:46;;;;;;;16.73;12.65;;;;;;;;;;5240633;28;20025;-76
2022/11/30 04:31:17;;;;;;;18.08;12.13;;;;;;;;;;5241247;28;20435;-76
2022/11/30 04:33:51;;;;;;;17.23;12.77;;;;;;;;;;5239485;28;20487;-76
2022/11/30 04:36:22;;;;;;;16.13;11.80;;;;;;;;;;5240832;28;20072;-76
2022/11/30 04:38:54;;;;;;;16.33;13.35;;;;;;;;;;5241018;28;20052;-76
2022/11/30 04:41:25;;;;;;;15.73;13.45;;;;;;;;;;5240224;28;20064;-76
2022/11/30 04:43:56;;;;;;;17.23;13.30;;;;;;;;;;5240976;28;20026;-76
2022/11/30 04:46:28;;;;;;;18.23;13.98;;;;;;;;;;5240546;28;20071;-76
2022/11/30 04:48:59;;;;;;;17.95;13.20;;;;;;;;;;5240014;28;20117;-76
2022/11/30 04:51:30;;;;;;;17.16;13.40;;;;;;;;;;5240543;28;20092;-77
2022/11/30 04:54:01;;;;;;;16.20;12.90;;;;;;;;;;5240752;28;20021;-76
2022/11/30 04:56:33;;;;;;;18.55;13.35;;;;;;;;;;5239954;28;20112;-76
2022/11/30 04:59:04;;;;;;;17.25;13.75;;;;;;;;;;5240566;28;20071;-75
2022/11/30 05:01:35;;;;;;;20.30;13.96;;;;;;;;;;5239488;28;20040;-76
2022/11/30 05:04:06;;;;;;;18.40;13.85;;;;;;;;;;5239842;28;20029;-76
2022/11/30 05:06:37;;;;;;;16.15;12.88;;;;;;;;;;5240402;28;20033;-75
2022/11/30 05:09:08;;;;;;;18.00;13.30;;;;;;;;;;5239819;28;20021;-75
2022/11/30 05:11:40;;;;;;;17.27;13.15;;;;;;;;;;5240017;28;20025;-75
2022/11/30 05:14:11;;;;;;;16.77;12.80;;;;;;;;;;5240366;28;20032;-76
2022/11/30 05:16:42;;;;;;;17.05;13.90;;;;;;;;;;5239069;28;20013;-75
2022/11/30 05:19:13;;;;;;;18.34;13.38;;;;;;;;;;5240553;28;20026;-75
2022/11/30 05:21:44;;;;;;;19.00;13.00;;;;;;;;;;5239842;28;20544;-76
2022/11/30 05:24:16;;;;;;;17.05;13.57;;;;;;;;;;5239743;28;20068;-76
2022/11/30 05:26:47;;;;;;;17.25;12.73;;;;;;;;;;5239722;28;20067;-76
2022/11/30 05:29:18;;;;;;;15.08;12.14;;;;;;;;;;5240632;28;20100;-76
2022/11/30 05:31:49;;;;;;;14.75;12.13;;;;;;;;;;5239246;28;20021;-76
2022/11/30 05:34:20;;;;;;;18.10;13.25;;;;;;;;;;5240013;28;20061;-76
2022/11/30 05:36:52;;;;;;;15.30;12.75;;;;;;;;;;5239499;28;20036;-76
2022/11/30 05:39:23;;;;;;;16.75;12.68;;;;;;;;;;5239993;28;20096;-76
2022/11/30 05:41:54;;;;;;;16.30;12.80;;;;;;;;;;5240161;28;20033;-76
2022/11/30 05:44:26;;;;;;;17.05;12.88;;;;;;;;;;5239438;28;20029;-76
2022/11/30 05:46:57;;;;;;;16.08;12.82;;;;;;;;;;5240068;28;20022;-76
2022/11/30 05:49:28;;;;;;;17.08;12.73;;;;;;;;;;5239880;28;20021;-76
2022/11/30 05:51:59;;;;;;;14.40;11.76;;;;;;;;;;5239117;28;20068;-76
2022/11/30 05:54:30;;;;;;;16.20;12.95;;;;;;;;;;5240088;28;20044;-76
2022/11/30 05:57:02;;;;;;;16.00;12.90;;;;;;;;;;5239589;28;20056;-76
2022/11/30 05:59:33;;;;;;;16.60;13.20;;;;;;;;;;5239012;28;20358;-75
2022/11/30 06:02:04;;;;;;;15.80;13.32;;;;;;;;;;5239420;28;20029;-75
2022/11/30 06:04:35;;;;;;;15.38;12.70;;;;;;;;;;5239117;28;20143;-77
2022/11/30 06:07:10;;;;;;;17.08;13.27;;;;;;;;;;5239755;28;20026;-77
2022/11/30 06:09:41;;;;;;;17.10;13.25;;;;;;;;;;5239398;28;20079;-76
2022/11/30 06:12:12;;;;;;;15.57;13.10;;;;;;;;;;5239514;28;20025;-76
2022/11/30 06:14:44;;;;;;;15.45;12.70;;;;;;;;;;5239341;28;20022;-76
2022/11/30 06:17:15;;;;;;;15.78;12.74;;;;;;;;;;5242404;28;20040;-77
2022/11/30 06:19:46;;;;;;;18.08;13.68;;;;;;;;;;5242401;28;20020;-76
2022/11/30 06:22:17;;;;;;;15.07;11.82;;;;;;;;;;5243794;28;20464;-76
2022/11/30 06:24:49;;;;;;;15.36;12.40;;;;;;;;;;5243430;28;20384;-77
2022/11/30 06:27:20;;;;;;;16.65;12.20;;;;;;;;;;5243049;28;20376;-76
2022/11/30 06:29:51;;;;;;;15.82;13.15;;;;;;;;;;5243422;28;20017;-76
2022/11/30 06:32:22;;;;;;;17.65;13.82;;;;;;;;;;5243796;28;20396;-77
2022/11/30 06:34:53;;;;;;;13.96;12.30;;;;;;;;;;5242551;28;20064;-77
2022/11/30 06:37:24;;;;;;;15.38;12.77;;;;;;;;;;5243330;28;20043;-77
2022/11/30 06:39:56;;;;;;;15.80;12.88;;;;;;;;;;5242513;28;20018;-77
2022/11/30 06:42:28;;;;;;;14.30;12.60;;;;;;;;;;5243232;28;20029;-77
2022/11/30 06:44:59;;;;;;;15.40;13.25;;;;;;;;;;5243307;28;20084;-77
2022/11/30 06:47:30;;;;;;;16.10;12.90;;;;;;;;;;5242523;28;20453;-77
2022/11/30 06:50:01;;;;;;;14.02;12.57;;;;;;;;;;5243165;28;20021;-77
2022/11/30 06:52:33;;;;;;;14.32;11.85;;;;;;;;;;5243055;28;20034;-77
2022/11/30 06:55:05;;;;;;;15.65;12.88;;;;;;;;;;5242468;28;20097;-77
2022/11/30 06:57:36;;;;;;;17.30;13.00;;;;;;;;;;5243107;28;20029;-76
2022/11/30 07:00:07;;;;;;;16.12;11.84;;;;;;;;;;5242993;28;20030;-76
2022/11/30 07:02:39;;;;;;;15.40;12.60;;;;;;;;;;5242939;28;20128;-77
2022/11/30 07:05:10;;;;;;;13.98;12.15;;;;;;;;;;5247526;28;20372;-76
2022/11/30 07:07:41;;;;;;;15.13;12.73;;;;;;;;;;5244201;28;20472;-76
2022/11/30 07:10:13;;;;;;;13.43;12.00;;;;;;;;;;5242314;28;20014;-76
2022/11/30 07:12:44;;;;;;;15.68;12.40;;;;;;;;;;5242334;28;20044;-77
2022/11/30 07:15:15;;;;;;;14.20;11.48;;;;;;;;;;5241949;28;20025;-77
2022/11/30 07:17:46;;;;;;;15.68;12.45;;;;;;;;;;5242184;28;20033;-77
2022/11/30 07:20:18;;;;;;;14.60;12.13;;;;;;;;;;5242778;28;20025;-77
2022/11/30 07:22:49;;;;;;;15.57;12.70;;;;;;;;;;5241063;28;20120;-75
2022/11/30 07:28:10;;;;;;;14.88;12.02;;;;;;;;;;5242320;28;20029;-76
2022/11/30 07:30:41;;;;;;;15.82;12.18;;;;;;;;;;5241008;28;20025;-76
2022/11/30 07:33:12;;;;;;;16.82;12.88;;;;;;;;;;5242086;28;20021;-76
2022/11/30 07:35:43;;;;;;;13.82;11.74;;;;;;;;;;5241465;28;20083;-77
2022/11/30 07:38:14;;;;;;;14.23;11.82;;;;;;;;;;5241482;28;20064;-77
2022/11/30 07:40:46;;;;;;;16.10;12.73;;;;;;;;;;5241626;28;20380;-78
2022/11/30 07:43:17;;;;;;;15.13;11.80;;;;;;;;;;5241481;28;20919;-77
2022/11/30 07:45:52;;;;;;;15.02;12.40;;;;;;;;;;5241824;28;20033;-77
2022/11/30 07:48:23;;;;;;;14.45;12.05;;;;;;;;;;5241882;28;20017;-76
2022/11/30 07:51:00;;;;;;;13.77;12.02;;;;;;;;;;5241112;28;20017;-76
2022/11/30 07:53:31;;;;;;;17.33;13.73;;;;;;;;;;5241698;28;20017;-76
2022/11/30 07:56:03;;;;;;;16.95;14.07;;;;;;;;;;5241774;28;20415;-77
2022/11/30 07:58:35;;;;;;;17.05;13.30;;;;;;;;;;5241472;28;20018;-77
2022/11/30 08:01:07;;;;;;;17.25;12.95;;;;;;;;;;5241290;28;20040;-77
2022/11/30 08:03:39;;;;;;;15.52;13.57;;;;;;;;;;5241403;28;20025;-76
2022/11/30 08:06:12;;;;;;;13.77;12.20;;;;;;;;;;5241007;28;20026;-75
2022/11/30 08:08:43;;;;;;;13.43;11.93;;;;;;;;;;5241024;28;20017;-75
2022/11/30 08:11:16;;;;;;;14.00;12.07;;;;;;;;;;5240969;28;20010;-74
2022/11/30 08:13:48;;;;;;;15.40;13.75;;;;;;;;;;5241226;28;20044;-77
2022/11/30 08:16:20;;;;;;;15.25;12.90;;;;;;;;;;5241491;28;20026;-74
2022/11/30 08:18:51;;;;;;;15.77;13.02;;;;;;;;;;5240523;28;20029;-76
2022/11/30 08:21:23;;;;;;;15.93;12.15;;;;;;;;;;5233922;28;20021;-77
2022/11/30 08:23:55;;;;;;;14.20;12.10;;;;;;;;;;5220155;28;20384;-78
2022/11/30 08:26:26;;;;;;;16.33;12.98;;;;;;;;;;5219858;28;20385;-75
2022/11/30 08:28:58;;;;;;;14.82;12.73;;;;;;;;;;5220028;28;20084;-73
2022/11/30 08:31:33;;;;;;;15.43;13.18;;;;;;;;;;5220520;28;20275;-74
2022/11/30 08:34:06;;;;;;;16.17;12.75;;;;;;;;;;5219054;28;20060;-74
2022/11/30 08:36:38;;;;;;;13.82;12.35;;;;;;;;;;5219784;28;20083;-74
2022/11/30 08:39:10;;;;;;;15.25;13.10;;;;;;;;;;5219474;28;20017;-74
2022/11/30 08:41:41;;;;;;;16.70;13.23;;;;;;;;;;5218915;28;20018;-74
2022/11/30 08:44:12;;;;;;;15.55;11.77;;;;;;;;;;5220619;28;20480;-74
2022/11/30 08:46:44;;;;;;;16.02;13.64;;;;;;;;;;5219182;28;20026;-74
2022/11/30 08:49:15;;;;;;;16.13;12.60;;;;;;;;;;5220446;28;20043;-74
2022/11/30 08:51:46;;;;;;;14.75;12.40;;;;;;;;;;5219834;28;20022;-74
2022/11/30 08:54:19;;;;;;;19.42;12.27;;;;;;;;;;5219721;28;20021;-74
2022/11/30 08:56:50;;;;;;;15.45;13.38;;;;;;;;;;5219627;28;20033;-72
2022/11/30 08:59:21;;;;;;;14.50;12.35;;;;;;;;;;5219821;28;20021;-70
2022/11/30 09:01:52;;;;;;;14.75;12.63;;;;;;;;;;5219738;28;20122;-73
2022/11/30 09:04:23;;;;;;;16.08;12.82;;;;;;;;;;5220319;28;20097;-74
2022/11/30 09:06:57;;;;;;;15.95;13.10;;;;;;;;;;5219861;28;20094;-71
2022/11/30 09:09:28;;;;;;;15.68;12.63;;;;;;;;;;5219119;28;20015;-70
2022/11/30 09:12:00;;;;;;;14.73;12.95;;;;;;;;;;5219664;28;20032;-72
2022/11/30 09:14:31;;;;;;;14.38;12.55;;;;;;;;;;5219072;28;20022;-73
2022/11/30 09:17:03;;;;;;;19.58;13.95;;;;;;;;;;5219722;28;20025;-73
2022/11/30 09:19:34;;;;;;;16.13;13.10;;;;;;;;;;5219740;28;20026;-73
2022/11/30 09:22:05;;;;;;;16.27;12.95;;;;;;;;;;5218873;28;20030;-73
2022/11/30 09:24:37;;;;;;;17.26;14.48;;;;;;;;;;5219555;28;20025;-72
2022/11/30 09:27:08;;;;;;;16.40;13.27;;;;;;;;;;5219254;28;20045;-72
2022/11/30 09:29:39;;;;;;;16.52;13.65;;;;;;;;;;5218619;28;20456;-71
2022/11/30 09:32:10;;;;;;;14.80;13.20;;;;;;;;;;5219692;28;20082;-70
2022/11/30 09:34:42;;;;;;;15.20;13.50;;;;;;;;;;5218828;28;20490;-71
2022/11/30 09:37:14;;;;;;;16.35;13.90;;;;;;;;;;5219176;28;20257;-71
2022/11/30 09:39:45;;;;;;;16.52;13.98;;;;;;;;;;5219000;28;20026;-71
2022/11/30 09:42:25;;;;;;;16.52;13.45;;;;;;;;;;5219831;28;20461;-72
2022/11/30 09:45:06;;;;;;;15.30;13.52;;;;;;;;;;5218665;28;20025;-71
2022/11/30 09:47:37;;;;;;;16.80;14.23;;;;;;;;;;5219414;28;20018;-71
2022/11/30 09:50:17;;;;;;;17.55;14.75;;;;;;;;;;5219142;28;20041;-71
2022/11/30 09:52:50;;;;;;;17.33;14.20;;;;;;;;;;5225665;28;20457;-70
2022/11/30 09:55:32;;;;;;;19.13;14.32;;;;;;;;;;5242889;28;20114;-70
2022/11/30 09:58:05;;;;;;;16.10;14.40;;;;;;;;;;5243002;28;20021;-70
2022/11/30 10:00:37;;;;;;;17.50;14.95;;;;;;;;;;5243890;28;20022;-70
2022/11/30 10:03:10;;;;;;;16.00;14.30;;;;;;;;;;5244266;28;20095;-70
2022/11/30 10:05:54;;;;;;;17.02;14.73;;;;;;;;;;5242749;28;20424;-70
2022/11/30 10:08:46;;;;;;;17.33;14.70;;;;;;;;;;5243907;28;20037;-70
2022/11/30 10:11:17;;;;;;;17.92;14.00;;;;;;;;;;5192778;28;20116;-70
2022/11/30 10:14:07;;;;;;;19.17;14.65;;;;;;;;;;5243237;28;20046;-70
2022/11/30 10:16:47;;;;;;;17.67;14.35;;;;;;;;;;5243874;28;20336;-72
2022/11/30 10:19:37;;;;;;;17.83;15.40;;;;;;;;;;5243112;28;20018;-73
2022/11/30 10:22:20;;;;;;;18.20;15.68;;;;;;;;;;5243464;28;20380;-73
2022/11/30 10:25:01;;;;;;;18.17;15.40;;;;;;;;;;5242564;28;20029;-72
2022/11/30 10:27:47;;;;;;;17.58;15.57;;;;;;;;;;5243743;28;20034;-72
2022/11/30 10:30:22;;;;;;;24.27;16.60;;;;;;;;;;5243793;28;20017;-72
2022/11/30 10:32:55;;;;;;;20.17;15.70;;;;;;;;;;5242625;28;20079;-72
2022/11/30 10:35:32;;;;;;;20.08;16.40;;;;;;;;;;5243208;28;20125;-72
2022/11/30 10:38:10;;;;;;;19.40;16.95;;;;;;;;;;5243316;28;20132;-72
2022/11/30 10:40:50;;;;;;;18.05;15.73;;;;;;;;;;5242211;28;20104;-72
2022/11/30 10:43:27;;;;;;;17.67;15.65;;;;;;;;;;5243051;28;20388;-72
2022/11/30 10:45:58;;;;;;;17.35;15.50;;;;;;;;;;5242572;28;20377;-72
2022/11/30 10:48:29;;;;;;;20.80;15.93;;;;;;;;;;5242972;28;20037;-72
2022/11/30 10:51:01;;;;;;;18.25;16.33;;;;;;;;;;5242925;28;20030;-73
2022/11/30 10:53:33;;;;;;;19.48;15.45;;;;;;;;;;5242178;28;20268;-73
2022/11/30 10:56:09;;;;;;;19.80;16.70;;;;;;;;;;5242936;28;20022;-73
2022/11/30 10:58:46;;;;;;;18.17;15.77;;;;;;;;;;5242708;28;20035;-73
2022/11/30 11:01:31;;;;;;;19.25;16.27;;;;;;;;;;5242406;28;20130;-72
2022/11/30 11:04:14;;;;;;;17.05;15.20;;;;;;;;;;5242472;28;20500;-72
2022/11/30 11:06:47;;;;;;;18.02;15.50;;;;;;;;;;5242490;28;20014;-72
2022/11/30 11:09:33;;;;;;;23.17;15.90;;;;;;;;;;5242242;28;20017;-73
2022/11/30 11:12:05;;;;;;;18.95;15.98;;;;;;;;;;5242531;28;20100;-73
2022/11/30 11:14:37;;;;;;;16.60;14.60;;;;;;;;;;5241757;28;20434;-72
2022/11/30 11:17:18;;;;;;;19.00;16.17;;;;;;;;;;5242911;28;20009;-72
2022/11/30 11:19:49;;;;;;;18.30;16.13;;;;;;;;;;5242086;28;20028;-71
2022/11/30 11:22:22;;;;;;;19.45;15.98;;;;;;;;;;5241390;28;20025;-69
2022/11/30 11:25:06;;;;;;;18.95;15.93;;;;;;;;;;5242326;28;20041;-71
2022/11/30 11:27:37;;;;;;;20.27;17.38;;;;;;;;;;5242147;28;20025;-71
2022/11/30 11:30:28;;;;;;;18.85;16.27;;;;;;;;;;5241381;28;20037;-71
2022/11/30 11:33:17;;;;;;;19.05;14.98;;;;;;;;;;5241844;28;20030;-71
2022/11/30 11:35:48;;;;;;;;;;;;;;;;;;5200342;28;20034;-71
2022/11/30 11:38:21;;;;;;;19.73;15.70;;;;;;;;;;5201264;28;20000;-71
2022/11/30 11:40:57;;;;;;;18.15;15.57;;;;;;;;;;5200922;28;20014;-71
2022/11/30 11:43:31;;;;;;;18.92;15.95;;;;;;;;;;5200377;28;20049;-71
2022/11/30 11:46:12;;;;;;;20.27;16.85;;;;;;;;;;5200825;28;20014;-71
2022/11/30 11:48:47;;;;;;;17.45;15.40;;;;;;;;;;5200034;28;20064;-72
2022/11/30 11:51:27;;;;;;;17.50;14.98;;;;;;;;;;5200361;28;20022;-71
2022/11/30 11:54:19;;;;;;;18.13;14.88;;;;;;;;;;5200682;28;20490;-72
2022/11/30 11:56:50;;;;;;;15.60;13.32;;;;;;;;;;5199785;28;20069;-72
2022/11/30 11:59:29;;;;;;;16.85;13.68;;;;;;;;;;5200542;28;20030;-73
2022/11/30 12:02:19;;;;;;;16.08;13.75;;;;;;;;;;5200130;28;20081;-72
2022/11/30 12:04:55;;;;;;;17.58;15.63;;;;;;;;;;5198906;28;20046;-73
2022/11/30 12:07:32;;;;;;;16.95;14.60;;;;;;;;;;5200547;28;20023;-72
2022/11/30 12:10:28;;;;;;;19.52;15.27;;;;;;;;;;5200554;28;20105;-72
2022/11/30 12:12:59;;;;;;;19.75;16.35;;;;;;;;;;5200054;28;20073;-71
2022/11/30 12:15:34;;;;;;;18.65;16.48;;;;;;;;;;5199684;28;20045;-72
2022/11/30 12:18:32;;;;;;;20.58;17.15;;;;;;;;;;5199258;28;20034;-71
2022/11/30 12:21:13;;;;;;;16.48;14.68;;;;;;;;;;5195821;28;20124;-72
2022/11/30 12:23:44;;;;;;;20.55;16.08;;;;;;;;;;5199913;28;20054;-72
2022/11/30 12:26:36;;;;;;;18.85;16.20;;;;;;;;;;5199592;28;20128;-72
2022/11/30 12:29:13;;;;;;;19.30;17.10;;;;;;;;;;5199589;28;20110;-73
2022/11/30 12:31:44;;;;;;;19.20;17.00;;;;;;;;;;5198747;28;20058;-73
2022/11/30 12:34:45;;;;;;;21.92;17.67;;;;;;;;;;5219322;28;20519;-71
2022/11/30 12:37:34;;;;;;;22.77;18.05;;;;;;;;;;5153492;28;20283;-73
2022/11/30 12:40:09;;;;;;;19.85;16.48;;;;;;;;;;5239997;28;20065;-73
2022/11/30 12:42:53;;;;;;;17.67;15.85;;;;;;;;;;5240498;28;20061;-73
2022/11/30 12:45:29;;;;;;;18.02;15.30;;;;;;;;;;5240621;28;20496;-73
2022/11/30 12:48:04;;;;;;;19.08;15.50;;;;;;;;;;5240563;28;20055;-74
2022/11/30 12:50:54;;;;;;;18.90;15.50;;;;;;;;;;5240531;28;20096;-74
2022/11/30 12:53:29;;;;;;;20.75;17.33;;;;;;;;;;5237896;28;20583;-73
2022/11/30 12:56:00;;;;;;;19.38;16.50;;;;;;;;;;5238118;28;20037;-74
2022/11/30 12:59:00;;;;;;;18.92;16.35;;;;;;;;;;5238517;28;20135;-74
2022/11/30 13:01:34;;;;;;;18.63;15.88;;;;;;;;;;5216623;28;20311;-73
2022/11/30 13:04:07;;;;;;;17.85;15.80;;;;;;;;;;5238757;28;20116;-73
2022/11/30 13:06:45;;;;;;;18.38;15.50;;;;;;;;;;5237869;28;20029;-73
2022/11/30 13:09:33;;;;;;;18.98;15.18;;;;;;;;;;5240321;28;20021;-73
2022/11/30 13:12:08;;;;;;;18.52;16.27;;;;;;;;;;5240060;28;20029;-73
2022/11/30 13:14:40;;;;;;;26.23;17.13;;;;;;;;;;5239134;28;20523;-74
2022/11/30 13:17:16;;;;;;;19.25;15.93;;;;;;;;;;5222396;28;20033;-72
2022/11/30 13:20:06;;;;;;;17.83;15.93;;;;;;;;;;5239605;28;20021;-72
2022/11/30 13:22:42;;;;;;;19.40;16.08;;;;;;;;;;5235830;28;20037;-71
2022/11/30 13:25:21;;;;;;;18.02;15.95;;;;;;;;;;5218227;28;20026;-73
2022/11/30 13:28:11;;;;;;;18.30;15.77;;;;;;;;;;5217194;28;20481;-70
2022/11/30 13:30:45;;;;;;;17.17;15.05;;;;;;;;;;5218398;28;20385;-71
2022/11/30 13:33:36;;;;;;;19.90;16.77;;;;;;;;;;5219394;28;20038;-71
2022/11/30 13:36:40;;;;;;;18.15;15.55;;;;;;;;;;5217281;28;20474;-73
2022/11/30 13:39:14;;;;;;;17.17;15.32;;;;;;;;;;5164850;28;20162;-71
2022/11/30 13:41:48;;;;;;;17.10;15.15;;;;;;;;;;5218072;28;20108;-71
2022/11/30 13:44:28;;;;;;;19.45;17.23;;;;;;;;;;5219481;28;20026;-70
2022/11/30 13:47:03;;;;;;;18.42;15.38;;;;;;;;;;5219011;28;20034;-71
2022/11/30 13:49:35;;;;;;;18.15;15.93;;;;;;;;;;5218318;28;20045;-71
2022/11/30 13:52:10;;;;;;;18.73;16.00;;;;;;;;;;5218597;28;20022;-72
2022/11/30 13:54:43;;;;;;;18.23;16.35;;;;;;;;;;5219856;28;20018;-71
2022/11/30 13:57:23;;;;;;;18.85;16.42;;;;;;;;;;5217009;28;20013;-71
2022/11/30 13:59:55;;;;;;;19.00;16.90;;;;;;;;;;5217420;28;20076;-71
2022/11/30 14:02:35;;;;;;;19.80;17.10;;;;;;;;;;5218043;28;20029;-71
2022/11/30 14:05:18;;;;;;;18.25;16.25;;;;;;;;;;5217057;28;20108;-71
2022/11/30 14:07:49;;;;;;;22.25;17.90;;;;;;;;;;5217401;28;20034;-71
2022/11/30 14:10:29;;;;;;;20.45;18.02;;;;;;;;;;5217197;28;20036;-71
2022/11/30 14:13:02;;;;;;;20.90;18.25;;;;;;;;;;5217567;28;20291;-73
2022/11/30 14:15:42;;;;;;;18.30;16.38;;;;;;;;;;5218108;28;20485;-71
2022/11/30 14:18:18;;;;;;;19.65;16.05;;;;;;;;;;5217452;28;20029;-71
2022/11/30 14:21:07;;;;;;;18.13;16.00;;;;;;;;;;5217542;28;20018;-71
2022/11/30 14:23:39;;;;;;;18.83;15.70;;;;;;;;;;5217214;28;20038;-72
2022/11/30 14:26:12;;;;;;;18.25;15.93;;;;;;;;;;5216510;28;20030;-70
2022/11/30 14:28:49;;;;;;;18.50;16.30;;;;;;;;;;5216305;28;20091;-72
2022/11/30 14:31:23;;;;;;;18.42;16.42;;;;;;;;;;5217249;28;20026;-71
2022/11/30 14:33:56;;;;;;;18.10;15.95;;;;;;;;;;5218088;28;20121;-71
2022/11/30 14:36:33;;;;;;;17.73;15.48;;;;;;;;;;5222659;28;20029;-73
2022/11/30 14:39:21;;;;;;;16.90;15.07;;;;;;;;;;5220803;28;20428;-71
2022/11/30 14:41:53;;;;;;;17.65;15.75;;;;;;;;;;5221648;28;20036;-71
2022/11/30 14:44:24;;;;;;;17.92;15.63;;;;;;;;;;5221315;28;20100;-70
2022/11/30 14:46:55;;;;;;;17.92;15.50;;;;;;;;;;5220694;28;20037;-71
2022/11/30 14:49:26;;;;;;;16.88;15.00;;;;;;;;;;5221667;28;20025;-70
2022/11/30 14:52:01;;;;;;;16.55;14.07;;;;;;;;;;5221661;28;20022;-70
2022/11/30 14:54:44;;;;;;;16.08;14.38;;;;;;;;;;5221672;28;20046;-71
2022/11/30 14:57:26;;;;;;;17.30;13.98;;;;;;;;;;5222536;28;20030;-71
2022/11/30 14:59:57;;;;;;;17.48;14.57;;;;;;;;;;5221258;28;20022;-71
2022/11/30 15:02:36;;;;;;;17.35;15.10;;;;;;;;;;5221883;28;20026;-72